Airfield :
LOGIN :

Register | Disclaimer

   EN    FR    IT 

 










Legend :    VFR   Marginal VFR   IFR   Intensive IFR   Very Intensive IFR
Visi :
Ceiling :
>= 8 km
>= 3000ft
5 to 8 km
1000 to 3000 ft
1500m to 5 km
500 to 1000 ft
800 to 1500m
200 to 500 ft
< 800m
< 200 ft
Symbols :   Thunderstorms  Fog  Heavy snow  Heavy precipitations  Wind > 20 kt
SIGMETs :     Misc.  Thunderstorms  Icing  Turbulence  Mountain Waves  Volcanic Ashes







- Airport Elevation : 220 ft
- IATA code : CWL
- Download approach charts


EGFF - Cardiff Rhoose

CURRENT METAR :
  • 160150Z AUTO 22011KT 9999 -RA OVC015/// //////TCU 18/16 Q1012 RERA REDZ

EXPIRED METARs :
  • 160120Z AUTO 23010KT 4900 RADZ FEW008/// BKN014/// OVC022/// //////CB 17/16 Q1012
  • 160050Z AUTO 23010KT 9999 BKN014/// OVC019/// //////TCU 18/16 Q1013
  • 160020Z AUTO 21011KT 9999 -RA OVC014 18/16 Q1013
  • 152350Z AUTO 22010KT 190V250 9999 OVC015 18/16 Q1013
  • 152320Z AUTO 22010KT 9999 BKN015 OVC020 18/16 Q1013

TAF TAF EGFF
Valid from the 16 at 00:00 until the 17 at 00:00 UTC


152302Z 1600/1624 22010KT 9999 SCT025
TEMPO 1600/1608 6000 RA BKN012
PROB30
TEMPO 1600/1607 29018G28KT 3500 +RA BKN006
BECMG 1606/1609 28014KT
BECMG 1622/1624 29004KT
ATIS : +44 1446 729 319
No reported NOTAMs for that airfield.



MET'MAP, your aeronautical weather chart ! - Copyright ORBIFLY December 2007 - Disclaimer

ORBIFLY MET'MAP TEAM :

Programming & Development : Alexandra Zaïnal
Concept & Development : Baudouin d'Aumeries
Co-Development & Prog : Marc-Olivier Méhu
Technical & hardware support : Manuel Goepfert

Contact : metmap@orbifly.com




SOURCES & CREDITS :

   NOAA